Time;durP1;ratioP1;P1;durP2;ratioP2;P2;SDS_P1;SDS_P2;PMS_P1;PMS_P2;Temp;Humidity;BMP_temperature;BMP_pressure;BME280_temperature;BME280_humidity;BME280_pressure;Samples;Min_cycle;Max_cycle;Signal;HPM_P1;HPM_P2
2022/11/17 00:01:48;;;;;;;3.40;1.60;;;18.90;76.00;;;;;;10481258;28;20048;-31
2022/11/17 00:06:51;;;;;;;;;;;19.10;75.60;;;;;;10469347;28;20076;-30
2022/11/17 00:17:13;;;;;;;5.90;1.65;;;18.70;77.40;;;;;;10482796;28;20057;-32
2022/11/17 00:22:16;;;;;;;5.72;2.75;;;18.70;77.40;;;;;;10479347;28;20076;-34
2022/11/17 00:27:18;;;;;;;3.13;1.63;;;18.60;78.20;;;;;;10489595;28;20123;-28
2022/11/17 00:38:14;;;;;;;2.72;1.83;;;18.50;78.60;;;;;;10477220;28;20053;-29
2022/11/17 00:43:04;;;;;;;4.38;1.55;;;18.60;78.60;;;;;;10468192;28;20056;-30
2022/11/17 00:48:06;;;;;;;2.60;1.40;;;18.80;77.50;;;;;;10465610;28;20789;-30
2022/11/17 00:53:10;;;;;;;4.68;1.80;;;18.80;76.20;;;;;;10480624;28;20086;-29
2022/11/17 00:58:11;;;;;;;3.78;1.88;;;18.40;79.30;;;;;;10472286;28;20143;-30
2022/11/17 01:03:14;;;;;;;3.15;1.88;;;18.20;80.50;;;;;;10468067;28;20037;-29
2022/11/17 01:08:17;;;;;;;4.07;1.67;;;18.40;78.50;;;;;;10469813;28;20774;-29
2022/11/17 01:13:19;;;;;;;3.78;1.70;;;18.50;79.10;;;;;;10469799;28;20057;-28
2022/11/17 01:18:21;;;;;;;3.30;1.43;;;18.60;78.40;;;;;;10477743;28;20049;-35
2022/11/17 01:23:24;;;;;;;3.17;1.77;;;18.70;78.20;;;;;;10476779;28;20853;-29
2022/11/17 01:28:26;;;;;;;2.22;1.20;;;18.50;77.90;;;;;;10469289;28;20045;-29
2022/11/17 01:33:28;;;;;;;5.90;2.17;;;18.60;78.60;;;;;;10466240;28;20076;-30
2022/11/17 01:38:32;;;;;;;3.67;1.50;;;18.50;78.10;;;;;;10479463;28;20044;-28
2022/11/17 01:43:39;;;;;;;2.28;1.20;;;18.50;78.70;;;;;;10464290;28;20045;-29
2022/11/17 01:48:42;;;;;;;2.35;1.35;;;18.40;79.30;;;;;;10467272;28;20077;-26
2022/11/17 01:53:49;;;;;;;5.53;2.08;;;18.50;78.90;;;;;;10482869;28;20076;-28
2022/11/17 01:58:55;;;;;;;3.17;1.63;;;18.50;78.90;;;;;;10484674;28;20053;-29
2022/11/17 02:03:57;;;;;;;1.27;0.95;;;18.10;79.90;;;;;;10475236;28;20045;-29
2022/11/17 02:09:03;;;;;;;2.17;1.63;;;18.20;81.40;;;;;;10477709;28;20095;-29
2022/11/17 02:14:05;;;;;;;1.95;1.20;;;18.40;79.20;;;;;;10480300;28;20140;-30
2022/11/17 02:19:11;;;;;;;3.15;1.00;;;18.40;79.90;;;;;;10462071;28;20139;-31
2022/11/17 02:24:41;;;;;;;3.08;1.33;;;18.60;78.40;;;;;;10481253;28;20110;-33
2022/11/17 02:29:52;;;;;;;1.63;1.00;;;18.60;78.40;;;;;;10461327;28;20566;-29
2022/11/17 02:35:03;;;;;;;2.17;1.30;;;18.70;77.80;;;;;;10468642;28;20040;-29
2022/11/17 02:40:10;;;;;;;3.10;1.10;;;18.70;76.90;;;;;;10476158;28;20127;-29
2022/11/17 02:45:17;;;;;;;3.38;1.33;;;18.60;77.60;;;;;;10469726;28;20140;-29
2022/11/17 02:50:23;;;;;;;2.65;1.10;;;18.30;79.20;;;;;;10463241;28;20075;-29
2022/11/17 02:55:26;;;;;;;2.40;1.25;;;18.40;80.10;;;;;;10463264;28;20419;-28
2022/11/17 03:00:31;;;;;;;3.95;1.27;;;18.50;78.10;;;;;;10474247;28;20147;-31
2022/11/17 03:05:41;;;;;;;3.15;0.98;;;18.20;79.80;;;;;;10456037;28;20072;-30
2022/11/17 03:10:51;;;;;;;3.13;0.93;;;18.40;79.00;;;;;;10469971;28;20092;-35
2022/11/17 03:16:04;;;;;;;1.98;1.10;;;18.30;79.90;;;;;;10463520;28;20144;-29
2022/11/17 03:21:15;;;;;;;1.15;0.80;;;18.40;79.60;;;;;;10468332;28;20049;-29
2022/11/17 03:26:25;;;;;;;2.13;0.85;;;18.50;78.20;;;;;;10479014;28;20105;-29
2022/11/17 03:31:32;;;;;;;2.70;0.73;;;18.40;79.80;;;;;;10480105;28;20045;-29
2022/11/17 03:36:37;;;;;;;1.25;0.93;;;18.40;79.10;;;;;;10469974;28;20481;-35
2022/11/17 03:41:45;;;;;;;2.95;1.02;;;18.10;80.40;;;;;;10478692;28;20068;-30
2022/11/17 03:46:51;;;;;;;4.20;0.90;;;18.30;80.50;;;;;;10476609;28;20072;-29
2022/11/17 03:51:53;;;;;;;1.25;0.77;;;18.00;81.70;;;;;;10466494;28;20129;-29
2022/11/17 03:57:01;;;;;;;2.10;0.77;;;18.30;80.80;;;;;;10485524;28;20189;-30
2022/11/17 04:02:05;;;;;;;1.45;0.73;;;18.20;80.80;;;;;;10476060;28;20135;-29
2022/11/17 04:07:06;;;;;;;1.27;0.57;;;18.40;80.00;;;;;;10483173;28;20485;-28
2022/11/17 04:17:29;;;;;;;2.42;0.80;;;18.40;80.20;;;;;;10481094;28;20045;-33
2022/11/17 04:22:31;;;;;;;5.07;1.58;;;18.20;80.80;;;;;;10470908;28;20075;-36
2022/11/17 04:32:54;;;;;;;0.93;0.52;;;18.20;81.30;;;;;;10462890;28;20472;-28
2022/11/17 04:37:56;;;;;;;1.45;0.60;;;18.30;80.50;;;;;;10476543;28;20052;-29
2022/11/17 04:42:58;;;;;;;2.25;0.90;;;18.30;80.40;;;;;;10467117;28;20505;-30
2022/11/17 04:48:01;;;;;;;2.45;0.80;;;18.50;79.40;;;;;;10479268;28;20047;-29
2022/11/17 04:53:03;;;;;;;1.23;0.63;;;18.50;79.10;;;;;;10479830;28;20094;-34
2022/11/17 04:58:04;;;;;;;1.40;0.88;;;18.50;79.90;;;;;;10469741;28;20049;-31
2022/11/17 05:03:08;;;;;;;2.03;0.60;;;18.40;80.10;;;;;;10483904;28;20071;-35
2022/11/17 05:08:09;;;;;;;1.08;0.50;;;18.60;78.70;;;;;;10481144;28;20478;-29
2022/11/17 05:13:24;;;;;;;2.40;0.55;;;18.60;78.30;;;;;;10489201;28;20055;-31
2022/11/17 05:18:27;;;;;;;2.08;0.70;;;18.50;77.60;;;;;;10469612;28;20457;-27
2022/11/17 05:28:48;;;;;;;1.10;0.75;;;18.50;79.40;;;;;;10471877;28;20044;-26
2022/11/17 05:33:52;;;;;;;1.35;0.50;;;18.30;80.40;;;;;;10464522;28;20068;-28
2022/11/17 05:38:55;;;;;;;1.08;0.60;;;18.40;79.80;;;;;;10478814;28;20048;-30
2022/11/17 05:43:57;;;;;;;;;;;18.40;80.10;;;;;;10475195;28;20065;-29
2022/11/17 05:49:00;;;;;;;1.10;0.60;;;18.30;81.10;;;;;;10470176;28;19924;-29
2022/11/17 05:54:01;;;;;;;0.93;0.60;;;18.10;81.30;;;;;;10466395;28;20045;-34
2022/11/17 05:59:13;;;;;;;3.60;1.10;;;18.30;81.30;;;;;;10473124;28;20526;-29
2022/11/17 06:04:19;;;;;;;4.25;1.40;;;18.30;80.80;;;;;;10471482;28;20056;-31
2022/11/17 06:09:21;;;;;;;3.03;0.50;;;18.10;82.40;;;;;;10477632;28;20041;-26
2022/11/17 06:14:22;;;;;;;1.42;0.60;;;18.10;82.40;;;;;;10481676;28;20080;-30
2022/11/17 06:19:31;;;;;;;2.47;0.82;;;18.20;82.00;;;;;;10477428;28;20045;-29
2022/11/17 06:24:33;;;;;;;1.88;0.80;;;18.50;80.80;;;;;;10464375;28;20140;-30
2022/11/17 06:29:35;;;;;;;1.08;0.70;;;18.30;81.80;;;;;;10466844;28;20127;-29
2022/11/17 06:34:38;;;;;;;1.20;0.85;;;18.20;81.10;;;;;;10475524;28;20052;-28
2022/11/17 06:39:40;;;;;;;2.30;1.00;;;17.90;82.80;;;;;;10474504;28;20048;-34
2022/11/17 06:44:42;;;;;;;2.00;0.80;;;18.30;81.90;;;;;;10472407;28;20040;-31
2022/11/17 06:49:45;;;;;;;3.73;0.77;;;18.10;82.90;;;;;;10474442;28;20475;-34
2022/11/17 06:54:47;;;;;;;3.30;0.65;;;18.10;83.00;;;;;;10461462;28;20076;-33
2022/11/17 06:59:51;;;;;;;3.28;1.42;;;18.20;82.50;;;;;;10472636;28;20057;-31
2022/11/17 07:15:29;;;;;;;7.72;2.90;;;18.40;80.50;;;;;;10499266;27;20109;-28
2022/11/17 07:20:31;;;;;;;2.75;1.48;;;18.30;80.80;;;;;;10477476;28;20041;-32
2022/11/17 07:25:33;;;;;;;9.75;2.95;;;18.40;81.50;;;;;;10473247;28;20048;-29
2022/11/17 07:30:36;;;;;;;3.10;1.33;;;18.70;82.70;;;;;;10480771;28;20097;-28
2022/11/17 07:35:38;;;;;;;4.53;1.30;;;18.50;81.10;;;;;;10483244;28;20518;-31
2022/11/17 07:40:40;;;;;;;2.60;1.20;;;18.40;83.00;;;;;;10487332;28;20481;-31
2022/11/17 07:45:43;;;;;;;6.60;1.95;;;18.80;80.70;;;;;;10479685;28;20056;-29
2022/11/17 07:50:45;;;;;;;6.60;1.05;;;18.70;80.80;;;;;;10475273;28;20056;-30
2022/11/17 07:55:47;;;;;;;1.73;0.55;;;18.70;80.70;;;;;;10479238;28;20049;-28
2022/11/17 08:00:50;;;;;;;3.22;1.08;;;18.50;82.70;;;;;;10483676;28;20095;-30
2022/11/17 08:05:52;;;;;;;2.47;0.90;;;18.70;81.30;;;;;;10484114;28;20080;-29
2022/11/17 08:10:54;;;;;;;2.95;1.05;;;18.80;80.70;;;;;;10480485;28;20072;-28
2022/11/17 08:15:58;;;;;;;1.50;0.65;;;18.70;81.50;;;;;;10480342;28;20060;-29
2022/11/17 08:21:04;;;;;;;4.70;0.90;;;18.60;81.70;;;;;;10487018;28;20044;-28
2022/11/17 08:26:07;;;;;;;5.57;0.73;;;18.30;84.10;;;;;;10455350;28;20049;-30
2022/11/17 08:31:10;;;;;;;2.45;1.00;;;17.90;86.30;;;;;;10454780;28;20049;-34
2022/11/17 08:36:12;;;;;;;3.85;0.70;;;17.00;89.20;;;;;;10450829;28;20142;-36
2022/11/17 08:41:14;;;;;;;5.30;1.00;;;17.60;88.30;;;;;;10452913;28;20080;-29
2022/11/17 08:46:18;;;;;;;3.97;1.10;;;16.70;86.90;;;;;;10455175;28;20389;-35
2022/11/17 08:51:19;;;;;;;4.28;0.80;;;16.60;91.20;;;;;;10454752;28;20076;-29
2022/11/17 08:56:22;;;;;;;5.10;0.63;;;16.80;86.20;;;;;;10452242;28;20041;-28
2022/11/17 09:01:25;;;;;;;7.53;0.90;;;16.10;88.10;;;;;;10455525;28;20478;-29
2022/11/17 09:06:27;;;;;;;3.25;0.70;;;15.00;93.60;;;;;;10456397;28;20552;-30
2022/11/17 09:11:29;;;;;;;1.07;0.50;;;15.60;94.30;;;;;;10456106;28;20158;-33
2022/11/17 09:16:32;;;;;;;6.13;0.90;;;16.50;91.00;;;;;;10452933;28;20106;-29
2022/11/17 09:21:34;;;;;;;3.30;0.60;;;16.80;91.30;;;;;;10451819;28;20477;-30
2022/11/17 09:26:39;;;;;;;2.57;0.67;;;17.20;89.70;;;;;;10446129;28;20051;-28
2022/11/17 09:31:42;;;;;;;1.90;0.73;;;17.70;86.80;;;;;;10450059;28;20053;-36
2022/11/17 09:36:45;;;;;;;6.95;1.08;;;16.60;90.80;;;;;;10449726;28;20048;-28
2022/11/17 09:41:50;;;;;;;4.28;0.70;;;16.30;91.00;;;;;;10446307;28;20049;-31
2022/11/17 09:46:59;;;;;;;1.02;0.50;;;16.40;91.40;;;;;;10450597;28;20076;-33
2022/11/17 09:52:07;;;;;;;2.90;0.80;;;16.90;90.20;;;;;;10448984;28;20087;-29
2022/11/17 09:57:18;;;;;;;4.10;0.93;;;17.10;91.50;;;;;;10440385;28;20136;-27
2022/11/17 10:02:22;;;;;;;1.25;0.80;;;16.60;90.40;;;;;;10444738;28;20405;-28
2022/11/17 10:07:24;;;;;;;4.22;0.90;;;17.20;90.40;;;;;;10445023;28;20041;-32
2022/11/17 10:12:32;;;;;;;5.55;1.20;;;17.00;90.40;;;;;;10436699;28;20064;-33
2022/11/17 10:17:38;;;;;;;5.28;1.00;;;15.30;92.10;;;;;;10446141;28;20144;-28
2022/11/17 10:22:41;;;;;;;5.03;0.88;;;16.30;92.90;;;;;;10452281;28;20041;-30
2022/11/17 10:27:49;;;;;;;;;;;14.50;95.90;;;;;;10446649;28;20514;-31
2022/11/17 10:32:55;;;;;;;5.60;1.08;;;14.70;97.80;;;;;;10447400;28;19924;-32
2022/11/17 10:37:59;;;;;;;4.80;1.05;;;16.20;93.60;;;;;;10447761;28;20123;-31
2022/11/17 10:43:16;;;;;;;6.13;1.08;;;15.60;95.10;;;;;;10449068;28;20103;-29
2022/11/17 10:48:28;;;;;;;8.00;1.52;;;15.40;95.80;;;;;;10445140;28;20132;-28
2022/11/17 10:53:35;;;;;;;1.45;0.80;;;14.50;93.70;;;;;;10446697;28;20478;-28
2022/11/17 10:58:56;;;;;;;5.82;1.17;;;16.00;95.40;;;;;;10446900;28;20041;-28
2022/11/17 11:04:00;;;;;;;5.35;1.10;;;14.30;98.80;;;;;;10453883;28;20502;-32
2022/11/17 11:09:10;;;;;;;3.40;0.70;;;13.50;99.90;;;;;;10444672;28;20488;-29
2022/11/17 11:14:20;;;;;;;1.42;0.70;;;15.30;95.40;;;;;;10441533;28;20057;-31
2022/11/17 11:19:24;;;;;;;4.32;1.00;;;14.10;97.10;;;;;;10447436;28;20660;-29
2022/11/17 11:24:35;;;;;;;3.75;0.55;;;14.10;99.90;;;;;;10447243;28;20052;-30
2022/11/17 11:29:50;;;;;;;4.70;0.73;;;13.60;99.20;;;;;;10457044;28;20048;-28
2022/11/17 11:35:15;;;;;;;6.88;1.30;;;13.90;97.10;;;;;;10444299;28;20064;-29
2022/11/17 11:40:24;;;;;;;2.30;1.52;;;13.70;99.90;;;;;;10455331;28;20510;-29
2022/11/17 11:45:42;;;;;;;3.75;0.63;;;15.00;96.80;;;;;;10447903;28;20136;-27
2022/11/17 11:50:54;;;;;;;2.20;0.65;;;13.10;99.90;;;;;;10446575;28;20048;-27
2022/11/17 11:56:08;;;;;;;8.95;1.65;;;14.10;98.60;;;;;;10443167;28;20057;-27
2022/11/17 12:01:12;;;;;;;7.28;0.85;;;14.10;99.90;;;;;;10452512;28;20049;-27
2022/11/17 12:12:00;;;;;;;3.40;0.80;;;14.80;97.30;;;;;;10454524;28;20056;-28
2022/11/17 12:17:06;;;;;;;5.78;0.77;;;14.60;98.20;;;;;;10454411;28;20475;-30
2022/11/17 12:22:09;;;;;;;5.65;0.90;;;14.60;99.00;;;;;;10457122;28;20095;-30
2022/11/17 12:27:41;;;;;;;3.47;1.15;;;15.30;97.90;;;;;;10452056;28;20044;-30
2022/11/17 12:32:53;;;;;;;4.17;0.90;;;14.70;97.90;;;;;;10449649;28;20147;-29
2022/11/17 12:38:47;;;;;;;4.33;0.83;;;16.30;94.50;;;;;;10448373;28;20438;-28
2022/11/17 12:43:50;;;;;;;7.13;1.45;;;13.30;98.90;;;;;;10312122;28;20073;-30
2022/11/17 12:49:01;;;;;;;7.05;1.25;;;12.80;99.90;;;;;;10423358;28;20130;-30
2022/11/17 12:54:15;;;;;;;17.38;2.20;;;11.70;99.90;;;;;;10452903;28;20092;-29
2022/11/17 12:59:57;;;;;;;6.15;0.88;;;12.10;99.90;;;;;;10455055;28;20044;-31
2022/11/17 13:05:04;;;;;;;7.40;1.15;;;13.00;99.90;;;;;;10443327;28;20084;-29
2022/11/17 13:10:07;;;;;;;5.88;1.10;;;13.20;99.90;;;;;;10449291;28;20052;-34
2022/11/17 13:15:22;;;;;;;5.45;1.02;;;14.30;99.90;;;;;;10447326;28;20140;-32
2022/11/17 13:20:26;;;;;;;3.40;0.90;;;16.00;96.20;;;;;;10450851;28;20063;-33
2022/11/17 13:25:28;;;;;;;8.13;2.22;;;14.80;97.80;;;;;;10456342;28;20044;-31
2022/11/17 13:30:32;;;;;;;8.27;1.67;;;13.10;99.90;;;;;;10460769;28;20052;-28
2022/11/17 13:35:36;;;;;;;7.03;2.00;;;14.70;97.80;;;;;;10463198;28;20382;-28
2022/11/17 13:40:41;;;;;;;6.38;1.00;;;13.80;99.90;;;;;;10455209;28;21467;-32
2022/11/17 13:45:46;;;;;;;6.32;1.40;;;14.70;99.90;;;;;;10465244;28;20159;-29
2022/11/17 13:50:48;;;;;;;5.45;0.80;;;16.60;95.40;;;;;;10447653;28;20559;-27
2022/11/17 13:55:50;;;;;;;4.22;0.80;;;16.90;94.10;;;;;;10452497;28;20524;-28
2022/11/17 14:00:55;;;;;;;;;;;17.20;93.20;;;;;;10439372;28;20049;-31
2022/11/17 14:05:57;;;;;;;4.35;0.80;;;17.00;92.60;;;;;;10447914;28;20338;-28
2022/11/17 14:11:20;;;;;;;3.25;0.90;;;16.80;95.10;;;;;;10449038;28;20134;-28
2022/11/17 14:16:26;;;;;;;8.50;1.40;;;16.90;94.90;;;;;;10466411;28;20461;-30
2022/11/17 14:21:29;;;;;;;10.48;1.83;;;16.90;92.90;;;;;;10456473;28;20102;-31
2022/11/17 14:26:31;;;;;;;;;;;16.40;94.10;;;;;;10450609;28;20498;-29
2022/11/17 14:31:34;;;;;;;11.38;2.67;;;15.40;99.30;;;;;;10448219;28;19931;-29
2022/11/17 14:36:37;;;;;;;3.13;0.80;;;16.00;95.20;;;;;;10446872;28;20056;-32
2022/11/17 14:41:47;;;;;;;5.57;1.02;;;17.10;93.60;;;;;;10447216;28;20443;-30
2022/11/17 14:46:50;;;;;;;4.13;0.90;;;17.10;94.00;;;;;;10448358;28;20041;-31
2022/11/17 14:51:54;;;;;;;3.42;0.90;;;17.90;91.10;;;;;;10457114;28;20045;-32
2022/11/17 14:56:56;;;;;;;4.68;0.77;;;17.20;85.80;;;;;;10446099;28;20409;-33
2022/11/17 15:01:59;;;;;;;10.43;1.73;;;17.30;93.10;;;;;;10445259;28;20059;-33
2022/11/17 15:07:01;;;;;;;2.83;0.90;;;17.00;91.00;;;;;;10439529;28;20136;-29
2022/11/17 15:12:03;;;;;;;8.77;1.70;;;17.30;92.60;;;;;;10449088;28;20106;-31
2022/11/17 15:17:08;;;;;;;5.90;0.98;;;17.30;91.50;;;;;;10453451;28;20482;-28
2022/11/17 15:22:10;;;;;;;3.40;1.05;;;17.40;91.30;;;;;;10448639;28;20132;-29
2022/11/17 15:27:13;;;;;;;4.53;1.00;;;16.40;94.50;;;;;;10447684;28;20053;-28
2022/11/17 15:32:16;;;;;;;;;;;17.30;93.90;;;;;;10449868;28;20041;-29
2022/11/17 15:37:18;;;;;;;6.20;1.35;;;17.80;92.00;;;;;;10455238;28;19999;-29
2022/11/17 15:42:20;;;;;;;3.80;1.30;;;16.90;94.10;;;;;;10450920;28;20047;-28
2022/11/17 15:47:23;;;;;;;2.25;0.75;;;16.80;91.90;;;;;;10453706;28;20076;-31
2022/11/17 15:52:25;;;;;;;4.65;1.20;;;17.10;94.00;;;;;;10460200;28;20048;-30
2022/11/17 15:57:27;;;;;;;4.57;1.08;;;18.00;90.00;;;;;;10453653;28;20140;-28
2022/11/17 16:02:31;;;;;;;4.70;0.77;;;17.30;94.40;;;;;;10454667;28;20469;-31
2022/11/17 16:07:33;;;;;;;5.50;1.30;;;16.80;94.50;;;;;;10460861;28;20201;-32
2022/11/17 16:12:35;;;;;;;5.88;1.38;;;17.00;94.60;;;;;;10464073;28;20136;-29
2022/11/17 16:17:38;;;;;;;7.63;1.70;;;17.10;92.50;;;;;;10455552;28;20076;-36
2022/11/17 16:22:40;;;;;;;3.95;1.20;;;16.70;92.80;;;;;;10453701;28;20045;-30
2022/11/17 16:27:42;;;;;;;9.07;1.67;;;17.30;93.60;;;;;;10456456;28;20114;-35
2022/11/17 16:32:46;;;;;;;4.75;0.93;;;16.70;95.10;;;;;;10456610;28;20139;-31
2022/11/17 16:37:51;;;;;;;2.90;0.77;;;17.50;90.30;;;;;;10461610;28;20052;-29
2022/11/17 16:42:55;;;;;;;5.32;0.90;;;17.50;93.10;;;;;;10464178;28;20057;-34
2022/11/17 16:47:58;;;;;;;3.78;1.25;;;17.30;94.00;;;;;;10450004;28;20052;-32
2022/11/17 16:53:00;;;;;;;5.20;1.38;;;16.90;91.70;;;;;;10458511;28;20072;-28
2022/11/17 16:58:02;;;;;;;7.67;1.53;;;16.50;91.30;;;;;;10455097;28;20072;-29
2022/11/17 17:03:05;;;;;;;11.93;1.17;;;16.40;92.70;;;;;;10447868;28;20045;-29
2022/11/17 17:08:07;;;;;;;7.05;1.17;;;15.50;96.10;;;;;;10442227;28;20124;-31
2022/11/17 17:13:09;;;;;;;4.17;1.50;;;15.80;95.10;;;;;;10453567;28;20135;-30
2022/11/17 17:18:13;;;;;;;6.40;1.50;;;15.90;95.20;;;;;;10451200;28;20447;-29
2022/11/17 17:23:15;;;;;;;7.78;1.50;;;16.70;93.60;;;;;;10450729;28;20041;-30
2022/11/17 17:28:17;;;;;;;6.67;2.67;;;15.90;94.30;;;;;;10448825;28;20137;-29
2022/11/17 17:33:20;;;;;;;6.53;2.15;;;17.20;92.20;;;;;;10450031;28;20140;-28
2022/11/17 17:38:22;;;;;;;5.68;1.80;;;16.30;95.20;;;;;;10454052;28;20041;-28
2022/11/17 17:43:24;;;;;;;9.67;1.70;;;16.40;95.20;;;;;;10450369;28;20045;-33
2022/11/17 17:48:29;;;;;;;7.82;1.10;;;15.80;90.10;;;;;;10448903;28;20455;-28
2022/11/17 17:53:32;;;;;;;6.18;1.42;;;16.60;94.10;;;;;;10451950;28;20141;-28
2022/11/17 17:58:39;;;;;;;7.93;1.20;;;15.90;96.90;;;;;;10447668;28;20068;-29
2022/11/17 18:03:44;;;;;;;8.35;1.17;;;15.10;97.70;;;;;;10447151;28;20045;-30
2022/11/17 18:08:46;;;;;;;10.80;2.05;;;16.30;94.80;;;;;;10443346;28;20045;-36
2022/11/17 18:13:50;;;;;;;10.00;1.63;;;14.40;97.60;;;;;;10449354;28;20061;-30
2022/11/17 18:18:57;;;;;;;8.02;1.38;;;14.60;99.90;;;;;;10443232;28;20044;-28
2022/11/17 18:24:01;;;;;;;4.85;1.20;;;15.90;92.80;;;;;;10447106;28;20060;-28
2022/11/17 18:29:06;;;;;;;9.73;1.90;;;16.40;95.20;;;;;;10445394;28;20575;-29
2022/11/17 18:34:14;;;;;;;7.32;1.38;;;15.00;96.70;;;;;;10455490;28;20049;-27
2022/11/17 18:39:16;;;;;;;9.00;1.50;;;16.30;94.30;;;;;;10457359;28;20383;-30
2022/11/17 18:44:19;;;;;;;11.60;2.03;;;16.60;94.10;;;;;;10447166;28;20106;-32
2022/11/17 18:49:22;;;;;;;;;;;17.00;84.30;;;;;;10448710;28;20524;-37
2022/11/17 18:54:24;;;;;;;10.68;1.60;;;17.90;90.20;;;;;;10447660;28;19920;-28
2022/11/17 18:59:26;;;;;;;5.18;1.15;;;18.10;72.60;;;;;;10447782;28;20106;-27
2022/11/17 19:04:30;;;;;;;5.13;1.35;;;17.90;91.00;;;;;;10447368;28;20049;-29
2022/11/17 19:09:32;;;;;;;8.43;1.30;;;16.90;93.00;;;;;;10436157;28;20174;-29
2022/11/17 19:14:34;;;;;;;7.43;1.25;;;16.80;94.40;;;;;;10444499;28;20555;-29
2022/11/17 19:19:38;;;;;;;8.85;1.50;;;16.80;93.60;;;;;;10444452;28;20053;-28
2022/11/17 19:24:42;;;;;;;8.38;1.65;;;17.70;91.70;;;;;;10442927;28;20055;-27
2022/11/17 19:29:43;;;;;;;3.25;1.27;;;18.10;90.20;;;;;;10450014;28;20061;-34
2022/11/17 19:34:47;;;;;;;9.32;1.20;;;18.60;83.30;;;;;;10438822;28;20053;-33
2022/11/17 19:39:49;;;;;;;4.95;1.42;;;17.40;90.60;;;;;;10437635;28;20057;-29
2022/11/17 19:44:51;;;;;;;6.65;1.77;;;17.40;83.00;;;;;;10443385;28;20052;-34
2022/11/17 19:49:54;;;;;;;4.45;1.13;;;18.40;88.00;;;;;;10444636;28;20049;-34
2022/11/17 19:54:56;;;;;;;10.48;1.55;;;19.20;80.50;;;;;;10444581;28;20081;-29
2022/11/17 19:59:58;;;;;;;8.23;1.10;;;18.30;82.20;;;;;;10445950;28;20077;-35
2022/11/17 20:05:01;;;;;;;7.25;1.15;;;16.80;94.10;;;;;;10446367;28;20057;-31
2022/11/17 20:10:04;;;;;;;8.65;2.05;;;17.30;82.70;;;;;;10427738;28;20048;-30
2022/11/17 20:15:06;;;;;;;9.27;1.38;;;17.10;90.40;;;;;;10452040;28;20052;-30
2022/11/17 20:20:11;;;;;;;7.78;1.17;;;18.70;85.30;;;;;;10446574;28;20045;-30
2022/11/17 20:25:13;;;;;;;12.05;1.77;;;17.70;88.10;;;;;;10450151;28;20036;-31
2022/11/17 20:30:15;;;;;;;;;;;18.60;83.50;;;;;;10449400;28;20052;-27
2022/11/17 20:35:19;;;;;;;7.37;1.57;;;19.00;82.90;;;;;;10447292;28;19921;-33
2022/11/17 20:40:21;;;;;;;9.43;1.30;;;17.10;92.00;;;;;;10450776;28;20408;-30
2022/11/17 20:45:23;;;;;;;8.52;1.35;;;18.20;89.90;;;;;;10449354;28;20086;-30
2022/11/17 20:50:26;;;;;;;9.77;1.52;;;19.20;80.30;;;;;;10444793;28;20068;-33
2022/11/17 20:55:28;;;;;;;6.68;1.95;;;19.00;80.60;;;;;;10433566;28;20055;-29
2022/11/17 21:00:30;;;;;;;6.10;1.15;;;19.30;77.90;;;;;;10443313;28;20121;-27
2022/11/17 21:05:33;;;;;;;4.18;0.90;;;19.20;73.10;;;;;;10455787;28;20047;-32
2022/11/17 21:10:36;;;;;;;6.50;1.23;;;19.50;75.00;;;;;;10429594;28;20527;-28
2022/11/17 21:15:38;;;;;;;4.03;0.95;;;18.80;80.50;;;;;;10444960;28;20486;-32
2022/11/17 21:20:42;;;;;;;13.13;1.52;;;19.60;77.80;;;;;;10436864;28;20521;-29
2022/11/17 21:25:44;;;;;;;6.97;1.45;;;19.40;78.10;;;;;;10445505;28;20055;-27
2022/11/17 21:30:46;;;;;;;7.47;1.15;;;19.20;81.40;;;;;;10451243;28;20064;-31
2022/11/17 21:35:49;;;;;;;3.53;1.15;;;19.70;76.00;;;;;;10447030;28;20107;-29
2022/11/17 21:40:51;;;;;;;8.63;1.85;;;19.10;79.30;;;;;;10451206;28;20458;-29
2022/11/17 21:45:53;;;;;;;6.28;1.20;;;19.50;76.90;;;;;;10444293;28;20507;-29
2022/11/17 21:50:56;;;;;;;8.73;1.30;;;19.30;78.70;;;;;;10451490;28;20486;-32
2022/11/17 21:56:02;;;;;;;7.72;1.60;;;19.50;78.00;;;;;;10448606;28;20139;-29
2022/11/17 22:01:08;;;;;;;16.13;2.05;;;19.10;81.40;;;;;;10447168;28;20065;-28
2022/11/17 22:06:12;;;;;;;6.90;1.42;;;19.30;79.80;;;;;;10444110;28;20045;-29
2022/11/17 22:11:33;;;;;;;4.70;1.35;;;19.20;79.80;;;;;;10448433;28;20045;-28
2022/11/17 22:16:36;;;;;;;10.88;1.48;;;19.30;78.50;;;;;;10436077;28;20052;-29
2022/11/17 22:21:40;;;;;;;5.10;1.20;;;19.80;75.10;;;;;;10445838;28;20127;-29
2022/11/17 22:26:43;;;;;;;6.80;1.20;;;19.70;76.00;;;;;;10444874;28;20147;-36
2022/11/17 22:31:47;;;;;;;5.70;1.02;;;19.50;75.70;;;;;;10441935;28;20076;-29
2022/11/17 22:36:50;;;;;;;6.00;1.10;;;19.10;78.80;;;;;;10437151;28;20060;-29
2022/11/17 22:41:52;;;;;;;4.22;1.05;;;19.70;75.60;;;;;;10441461;28;20445;-30
2022/11/17 22:46:54;;;;;;;4.10;0.88;;;19.70;74.60;;;;;;10426939;28;20110;-30
2022/11/17 22:52:04;;;;;;;3.53;1.02;;;19.80;74.10;;;;;;10445265;28;20045;-31
2022/11/17 22:57:06;;;;;;;4.03;0.93;;;19.70;74.50;;;;;;10451907;28;20056;-26
2022/11/17 23:02:08;;;;;;;2.22;0.80;;;19.20;76.50;;;;;;10445787;28;20127;-27
2022/11/17 23:07:11;;;;;;;3.75;0.85;;;19.70;74.90;;;;;;10445289;28;20094;-33
2022/11/17 23:12:13;;;;;;;4.65;0.88;;;19.70;74.20;;;;;;10443827;28;20081;-32
2022/11/17 23:17:16;;;;;;;4.47;1.15;;;19.70;74.00;;;;;;10448215;28;20052;-28
2022/11/17 23:22:19;;;;;;;2.35;1.00;;;19.70;74.40;;;;;;10432651;28;20131;-27
2022/11/17 23:27:21;;;;;;;2.67;0.80;;;19.70;74.40;;;;;;10443290;28;20053;-30
2022/11/17 23:32:23;;;;;;;4.80;0.75;;;19.60;75.00;;;;;;10444197;28;20131;-28
2022/11/17 23:37:28;;;;;;;4.07;0.75;;;19.60;73.80;;;;;;10443446;28;20379;-28
2022/11/17 23:42:29;;;;;;;5.65;1.52;;;19.60;75.20;;;;;;10442193;28;20131;-29
2022/11/17 23:47:31;;;;;;;7.10;1.52;;;19.50;75.50;;;;;;10445617;28;20128;-27
2022/11/17 23:52:35;;;;;;;2.58;1.00;;;19.60;74.80;;;;;;10448849;28;20470;-27
2022/11/17 23:57:37;;;;;;;1.17;0.80;;;19.70;74.40;;;;;;10451526;28;20161;-29
